createdAt,value
2023-03-12T00:03:43.228Z,11.10
2023-03-12T00:08:45.640Z,11.10
2023-03-12T00:13:56.621Z,11.10
2023-03-12T00:18:58.788Z,11.10
2023-03-12T00:24:00.909Z,11.10
2023-03-12T00:29:03.404Z,11.10
2023-03-12T00:34:05.519Z,11.10
2023-03-12T00:39:07.897Z,11.10
2023-03-12T00:44:10.163Z,11.10
2023-03-12T00:49:12.573Z,11.20
2023-03-12T00:54:14.758Z,11.10
2023-03-12T00:59:17.436Z,11.10
2023-03-12T01:04:19.806Z,11.20
2023-03-12T01:09:22.146Z,11.10
2023-03-12T01:14:26.946Z,11.10
2023-03-12T01:19:29.457Z,11.10
2023-03-12T01:24:31.791Z,11.10
2023-03-12T01:29:34.052Z,11.10
2023-03-12T01:34:36.167Z,11.10
2023-03-12T01:39:38.499Z,11.10
2023-03-12T01:44:57.252Z,11.10
2023-03-12T01:50:00.689Z,10.90
2023-03-12T01:55:06.002Z,10.90
2023-03-12T02:00:17.214Z,10.80
2023-03-12T02:05:27.818Z,10.70
2023-03-12T02:10:30.255Z,10.70
2023-03-12T02:15:34.707Z,10.60
2023-03-12T02:21:05.310Z,10.40
2023-03-12T02:26:09.249Z,10.30
2023-03-12T02:31:20.903Z,10.20
2023-03-12T02:36:23.193Z,10.10
2023-03-12T02:41:39.162Z,9.90
2023-03-12T02:47:01.927Z,9.90
2023-03-12T02:52:04.866Z,9.90
2023-03-12T02:57:07.322Z,9.80
2023-03-12T03:02:12.721Z,9.70
2023-03-12T03:07:15.210Z,9.60
2023-03-12T03:12:17.628Z,9.50
2023-03-12T03:17:19.942Z,9.50
2023-03-12T03:22:23.201Z,9.40
2023-03-12T03:27:25.525Z,9.40
2023-03-12T03:32:29.148Z,9.50
2023-03-12T03:37:31.597Z,9.50
2023-03-12T03:42:33.947Z,9.60
2023-03-12T03:47:37.246Z,9.60
2023-03-12T03:52:39.811Z,9.50
2023-03-12T03:57:42.465Z,9.40
2023-03-12T04:02:45.577Z,9.30
2023-03-12T04:07:51.736Z,9.30
2023-03-12T04:12:56.827Z,9.20
2023-03-12T04:17:59.412Z,9.20
2023-03-12T04:23:03.304Z,9.10
2023-03-12T04:28:06.505Z,9.10
2023-03-12T04:33:11.565Z,9.20
2023-03-12T04:38:14.195Z,9.20
2023-03-12T04:43:20.117Z,9.10
2023-03-12T04:48:23.915Z,9.10
2023-03-12T04:53:27.831Z,9.10
2023-03-12T04:58:30.982Z,9.10
2023-03-12T05:03:33.908Z,9.10
2023-03-12T05:08:37.175Z,9.10
2023-03-12T05:13:39.647Z,9.10
2023-03-12T05:18:42.490Z,9.10
2023-03-12T05:23:45.760Z,9.10
2023-03-12T05:28:48.535Z,9.00
2023-03-12T05:33:52.987Z,9.10
2023-03-12T05:38:56.598Z,9.00
2023-03-12T05:44:01.109Z,9.00
2023-03-12T05:49:04.212Z,9.20
2023-03-12T05:54:08.308Z,9.30
2023-03-12T05:59:10.818Z,9.30
2023-03-12T06:04:14.728Z,9.40
2023-03-12T06:09:17.419Z,9.50
2023-03-12T06:14:19.665Z,9.60
2023-03-12T06:19:22.587Z,9.60
2023-03-12T06:24:25.668Z,9.70
2023-03-12T06:29:36.417Z,9.70
2023-03-12T06:34:38.697Z,9.80
2023-03-12T06:39:41.146Z,9.80
2023-03-12T06:44:43.255Z,9.90
2023-03-12T06:49:45.481Z,9.90
2023-03-12T06:54:47.828Z,10.00
2023-03-12T06:59:50.711Z,10.00
2023-03-12T07:04:53.025Z,10.00
2023-03-12T07:09:55.189Z,10.00
2023-03-12T07:14:57.273Z,10.10
2023-03-12T07:19:59.484Z,10.20
2023-03-12T07:25:01.600Z,10.20
2023-03-12T07:30:04.916Z,10.30
2023-03-12T07:35:07.377Z,10.30
2023-03-12T07:40:10.611Z,10.40
2023-03-12T07:45:13.020Z,10.50
2023-03-12T07:50:16.559Z,10.50
2023-03-12T07:55:18.859Z,10.60
2023-03-12T08:00:21.373Z,10.60
2023-03-12T08:05:25.006Z,10.70
2023-03-12T08:10:27.192Z,10.70
2023-03-12T08:15:29.372Z,10.80
2023-03-12T08:20:31.530Z,10.80
2023-03-12T08:25:33.667Z,10.90
2023-03-12T08:30:35.762Z,11.00
2023-03-12T08:35:38.042Z,11.10
2023-03-12T08:40:40.244Z,11.10
2023-03-12T08:45:42.376Z,11.10
2023-03-12T08:50:44.616Z,11.20
2023-03-12T08:55:46.760Z,11.20
2023-03-12T09:00:49.082Z,11.30
2023-03-12T09:06:01.753Z,11.40
2023-03-12T09:11:03.935Z,11.50
2023-03-12T09:16:07.234Z,11.50
2023-03-12T09:21:09.370Z,11.40
2023-03-12T09:26:12.678Z,11.40
2023-03-12T09:31:15.148Z,11.40
2023-03-12T09:36:17.596Z,11.40
2023-03-12T09:41:24.105Z,11.60
2023-03-12T09:46:37.664Z,11.70
2023-03-12T09:51:46.082Z,11.80
2023-03-12T09:56:51.107Z,11.90
2023-03-12T10:01:58.177Z,12.00
2023-03-12T10:07:15.386Z,12.10
2023-03-12T10:12:23.856Z,12.10
2023-03-12T10:17:38.927Z,12.00
2023-03-12T10:22:54.668Z,12.20
2023-03-12T10:28:11.600Z,12.30
2023-03-12T10:33:17.702Z,12.40
2023-03-12T10:38:30.104Z,12.50
2023-03-12T10:43:35.304Z,12.50
2023-03-12T10:48:37.592Z,12.70
2023-03-12T10:53:42.915Z,12.80
2023-03-12T10:58:50.480Z,12.80
2023-03-12T11:04:07.702Z,12.80
2023-03-12T11:09:16.722Z,12.90
2023-03-12T11:14:30.059Z,13.10
2023-03-12T11:19:34.386Z,13.30
2023-03-12T11:24:36.656Z,13.40
2023-03-12T11:29:44.730Z,13.70
2023-03-12T11:34:49.591Z,13.80
2023-03-12T11:39:57.903Z,14.10
2023-03-12T11:45:07.628Z,14.20
2023-03-12T11:50:12.735Z,14.20
2023-03-12T11:55:20.605Z,14.40
2023-03-12T12:00:49.423Z,14.60
2023-03-12T12:06:28.210Z,14.70
2023-03-12T12:11:39.437Z,14.40
2023-03-12T12:17:09.129Z,14.10
2023-03-12T12:22:20.308Z,14.00
2023-03-12T12:27:26.612Z,14.00
2023-03-12T12:33:06.831Z,13.90
2023-03-12T12:38:17.607Z,14.00
2023-03-12T12:43:33.429Z,14.00
2023-03-12T12:49:01.128Z,14.20
2023-03-12T12:54:16.874Z,14.40
2023-03-12T12:59:43.790Z,14.40
2023-03-12T13:04:46.748Z,14.50
2023-03-12T13:09:52.394Z,14.70
2023-03-12T13:14:57.029Z,14.50
2023-03-12T13:20:06.073Z,14.30
2023-03-12T13:25:25.380Z,14.20
2023-03-12T13:30:51.506Z,14.00
2023-03-12T13:36:11.950Z,13.90
2023-03-12T13:41:35.788Z,13.90
2023-03-12T13:46:41.077Z,13.90
2023-03-12T13:51:46.818Z,13.80
2023-03-12T13:57:02.526Z,13.60
2023-03-12T14:02:15.290Z,13.50
2023-03-12T14:07:55.820Z,13.50
2023-03-12T14:13:03.538Z,13.50
2023-03-12T14:18:17.743Z,13.80
2023-03-12T14:23:21.324Z,14.00
2023-03-12T14:28:24.584Z,14.10
2023-03-12T14:33:48.351Z,14.10
2023-03-12T14:38:50.883Z,14.00
2023-03-12T14:44:04.600Z,13.70
2023-03-12T14:49:09.530Z,13.50
2023-03-12T14:54:24.181Z,13.40
2023-03-12T14:59:32.383Z,13.50
2023-03-12T15:04:35.381Z,13.50
2023-03-12T15:09:37.716Z,13.50
2023-03-12T15:14:42.415Z,13.50
2023-03-12T15:19:45.619Z,13.40
2023-03-12T15:24:48.186Z,13.30
2023-03-12T15:29:50.847Z,13.20
2023-03-12T15:34:56.106Z,13.10
2023-03-12T15:40:02.030Z,13.00
2023-03-12T15:45:04.724Z,13.00
2023-03-12T15:50:30.257Z,13.00
2023-03-12T15:55:34.836Z,13.00
2023-03-12T16:00:45.179Z,13.00
2023-03-12T16:05:49.705Z,13.00
2023-03-12T16:10:53.135Z,13.10
2023-03-12T16:15:55.265Z,13.10
2023-03-12T16:20:57.512Z,13.20
2023-03-12T16:26:00.755Z,13.30
2023-03-12T16:31:03.451Z,13.40
2023-03-12T16:36:14.417Z,13.40
2023-03-12T16:41:19.088Z,13.40
2023-03-12T16:46:23.340Z,13.40
2023-03-12T16:51:28.401Z,13.40
2023-03-12T16:56:30.568Z,13.30
2023-03-12T17:01:33.020Z,13.20
2023-03-12T17:06:35.298Z,13.10
2023-03-12T17:11:38.260Z,13.10
2023-03-12T17:16:40.425Z,13.10
2023-03-12T17:21:43.446Z,13.10
2023-03-12T17:26:46.600Z,13.10
2023-03-12T17:31:48.731Z,13.10
2023-03-12T17:36:50.978Z,13.20
2023-03-12T17:41:53.646Z,13.20
2023-03-12T17:46:59.672Z,13.20
2023-03-12T17:52:03.300Z,13.10
2023-03-12T17:57:05.580Z,13.20
2023-03-12T18:02:09.855Z,13.10
2023-03-12T18:07:12.694Z,13.10
2023-03-12T18:12:14.897Z,13.10
2023-03-12T18:17:17.115Z,13.10
2023-03-12T18:22:20.010Z,13.10
2023-03-12T18:27:22.149Z,13.10
2023-03-12T18:32:24.360Z,13.10
2023-03-12T18:37:26.668Z,13.10
2023-03-12T18:42:28.886Z,13.10
2023-03-12T18:47:32.818Z,13.10
2023-03-12T18:52:35.537Z,13.10
2023-03-12T18:57:37.803Z,13.10
2023-03-12T19:02:40.559Z,13.10
2023-03-12T19:07:43.046Z,13.20
2023-03-12T19:12:52.664Z,13.10
2023-03-12T19:17:56.014Z,13.20
2023-03-12T19:22:58.290Z,13.20
2023-03-12T19:28:00.535Z,13.20
2023-03-12T19:33:03.555Z,13.20
2023-03-12T19:38:06.157Z,13.20
2023-03-12T19:43:08.356Z,13.20
2023-03-12T19:48:10.836Z,13.20
2023-03-12T19:53:13.391Z,13.20
2023-03-12T19:58:16.230Z,13.20
2023-03-12T20:03:20.774Z,13.20
2023-03-12T20:08:26.155Z,13.20
2023-03-12T20:13:28.415Z,13.20
2023-03-12T20:18:30.714Z,13.20
2023-03-12T20:23:33.004Z,13.20
2023-03-12T20:28:35.393Z,13.30
2023-03-12T20:33:38.077Z,13.30
2023-03-12T20:38:40.745Z,13.30
2023-03-12T20:43:43.722Z,13.40
2023-03-12T20:48:45.913Z,13.40
2023-03-12T20:53:48.167Z,13.40
2023-03-12T20:58:50.366Z,13.40
2023-03-12T21:03:52.912Z,13.40
2023-03-12T21:08:58.668Z,13.40
2023-03-12T21:14:00.864Z,13.40
2023-03-12T21:19:03.033Z,13.20
2023-03-12T21:24:05.512Z,13.10
2023-03-12T21:29:07.767Z,13.00
2023-03-12T21:34:09.961Z,13.00
2023-03-12T21:39:12.891Z,13.10
2023-03-12T21:44:16.600Z,13.10
2023-03-12T21:49:19.215Z,13.10
2023-03-12T21:54:21.865Z,13.10
2023-03-12T21:59:24.066Z,13.20
2023-03-12T22:04:26.481Z,13.20
2023-03-12T22:09:28.743Z,13.20
2023-03-12T22:14:30.849Z,13.20
2023-03-12T22:19:33.003Z,13.20
2023-03-12T22:24:35.740Z,13.30
2023-03-12T22:29:37.978Z,13.30
2023-03-12T22:34:44.768Z,13.30
2023-03-12T22:39:49.608Z,13.30
2023-03-12T22:44:54.081Z,13.40
2023-03-12T22:49:58.459Z,13.40
2023-03-12T22:55:00.616Z,13.40
2023-03-12T23:00:05.994Z,13.30
2023-03-12T23:05:09.378Z,13.40
2023-03-12T23:10:11.924Z,13.40
2023-03-12T23:15:16.525Z,13.40
2023-03-12T23:20:18.770Z,13.50
2023-03-12T23:25:20.917Z,13.50
2023-03-12T23:30:23.386Z,13.50
2023-03-12T23:35:25.551Z,13.50
2023-03-12T23:40:27.898Z,13.40
2023-03-12T23:45:30.113Z,13.40
2023-03-12T23:50:36.469Z,13.40
2023-03-12T23:55:42.606Z,13.50
